Saint Joseph, MO

10:54 PM CST on January 25, 2015 (GMT -0600)
St. Joseph | Change Station
CLOSE
Current Station
Airport
Location: St. Joseph,
Elevation: 817 ft
Nearby Weather Stations

Elev 817 ft 39.77 °N, 94.91 °W | Updated 1 hour ago

Mostly Cloudy
Mostly Cloudy
28 °F
Feels Like 28 °F
N
0
Wind Variable Wind from North

Today
High -- | Low -- °F
--% Chance of Precip.
Yesterday
High -- | Low -- °F
Precip. -- in
7:33 AM 5:30 PM
Waxing Crescent, 39% visible
Pressure 30.14 in
Visibility 10.0 miles
Clouds Mostly Cloudy 3600 ft
Dew Point 26 °F
Humidity 92%
Rainfall 0.02 in
Snow Depth Not available.
UV 0 out of 12
Pollen .70 out of 12
Air Quality Not available.
Flu Activity Not available.
METAR KSTJ 260353Z AUTO 00000KT 10SM BKN036 M02/M03 A3011 RMK AO2 SLP204 T10221033 $

More Conditions Fewer Conditions

Pressure 30.14 in
Visibility 10.0 miles
Clouds Mostly Cloudy 3600 ft
Dew Point 26 °F
Humidity 92%
Rainfall 0.02 in
Snow Depth Not available.
UV 0 out of 12
Pollen .70 out of 12
Air Quality Not available.
Flu Activity Not available.
METAR KSTJ 260353Z AUTO 00000KT 10SM BKN036 M02/M03 A3011 RMK AO2 SLP204 T10221033 $

More Conditions Fewer Conditions

10-Day Weather Forecast

Almanac

Astronomy

Jan. 25, 2015 Rise Set
Actual Time
Civil Twilight
Nautical Twilight
Astronomical Twilight
Moon
Length of Visible Light
Length of Day
Tomorrow will be .
, % of the Moon is Illuminated

Today's Extremes

State Highs State Lows

Community

WunderPhotos

Upload Photos

1,790,139 photos uploaded!

WunderBlogs® & News

Nearby

Air Quality

  Air Quality AQ Index Pollutant
Not available.

Snow Depth

Station Depth Elevation

Earthquake Activity

City Distance Mag. Time & Date
Minimum magnitude displayed is 2.5.

Coastal Water Temperatures

Place Temperature

Nearby Weather Stations